Rocky Mountain Metropolitan Airport
KBJC : rendu visible

Aérodrome :











RETROUVEZ-NOUS SUR...

 
LOGIN :

S'inscrire | Disclaimer

   EN    FR    IT 

 









Légende :    VFR   VFR Marginal   IFR   IFR Intensif   IFR Très Intensif
Visi : 
Plafond : 
>= 8 km
>= 3000ft
5 à 8 km
1000 à 3000 ft
1500m à 5 km
500 à 1000 ft
800 à 1500m
200 à 500 ft
< 800m
< 200 ft
Symboles :   Orages  Brouillard  Fortes neiges  Fortes précipitations  Vent > 20 kt






- Altitude de l'aérodrome : 5673 ft


KBJC - Rocky Mountain Metropolitan

DERNIER METAR :
  • 142045Z 13005KT 10SM SCT150 12/M05 A3024

METARs EXPIRÉS :
  • 141945Z 09006KT 10SM SKC 11/M04 A3026
  • 141852Z 12003KT 10SM SKC 10/M02 A3028

TAF KBJC
Valide du 14 à 18h jusqu'au 15 à 18h UTC


141737Z 1418/1518 VRB04KT P6SM FEW220
FM142000 12005KT P6SM FEW220
FM150100 23005KT P6SM SCT220
FM150500 29006KT P6SM SCT220
FM151500 VRB04KT P6SM SCT220



MET'MAP, la Météo Aéronautique d'un coup d'oeil ! - Copyright ORBIFLY Décembre 2007 - Disclaimer

ORBIFLY MET'MAP TEAM :

Programmation & Développement : Alexandra Zaïnal
Conception & Développement : Baudouin d'Aumeries
Co-Programmation & Développement : Marc-Olivier Méhu
Soutien technique & logistique : Manuel Goepfert

Contact : metmap@orbifly.com




SOURCES & CREDITS :

   NOAA       Earth
Advisory